sensor_id;sensor_type;location;lat;lon;timestamp;pressure;altitude;pressure_sealevel;temperature;humidity
4199;BME280;2113;50.946;14.610;2023-02-15T00:00:17;98528.03;;;4.12;61.63
4199;BME280;2113;50.946;14.610;2023-02-15T00:02:45;98525.81;;;4.43;61.18
4199;BME280;2113;50.946;14.610;2023-02-15T00:05:15;98526.59;;;4.34;61.37
4199;BME280;2113;50.946;14.610;2023-02-15T00:07:44;98527.63;;;4.51;60.32
4199;BME280;2113;50.946;14.610;2023-02-15T00:10:12;98524.19;;;4.53;59.98
4199;BME280;2113;50.946;14.610;2023-02-15T00:12:41;98520.63;;;4.41;60.59
4199;BME280;2113;50.946;14.610;2023-02-15T00:15:09;98523.19;;;4.38;60.05
4199;BME280;2113;50.946;14.610;2023-02-15T00:17:39;98512.19;;;4.51;60.26
4199;BME280;2113;50.946;14.610;2023-02-15T00:20:08;98506.69;;;4.24;61.39
4199;BME280;2113;50.946;14.610;2023-02-15T00:22:38;98493.09;;;4.34;61.24
4199;BME280;2113;50.946;14.610;2023-02-15T00:25:06;98497.22;;;4.20;62.02
4199;BME280;2113;50.946;14.610;2023-02-15T00:27:34;98488.53;;;4.10;62.27
4199;BME280;2113;50.946;14.610;2023-02-15T00:30:03;98492.97;;;4.23;62.08
4199;BME280;2113;50.946;14.610;2023-02-15T00:32:33;98485.47;;;4.43;61.22
4199;BME280;2113;50.946;14.610;2023-02-15T00:35:01;98491.97;;;4.10;62.10
4199;BME280;2113;50.946;14.610;2023-02-15T00:37:29;98489.44;;;4.14;62.52
4199;BME280;2113;50.946;14.610;2023-02-15T00:39:59;98487.91;;;4.31;61.46
4199;BME280;2113;50.946;14.610;2023-02-15T00:42:29;98487.19;;;4.44;61.55
4199;BME280;2113;50.946;14.610;2023-02-15T00:44:57;98482.81;;;4.34;61.46
4199;BME280;2113;50.946;14.610;2023-02-15T00:47:27;98484.25;;;4.09;62.13
4199;BME280;2113;50.946;14.610;2023-02-15T00:49:56;98477.44;;;4.16;61.95
4199;BME280;2113;50.946;14.610;2023-02-15T00:52:23;98480.97;;;4.24;61.33
4199;BME280;2113;50.946;14.610;2023-02-15T00:54:52;98481.38;;;3.87;62.74
4199;BME280;2113;50.946;14.610;2023-02-15T00:57:21;98486.59;;;3.93;61.70
4199;BME280;2113;50.946;14.610;2023-02-15T00:59:50;98482.00;;;4.41;61.19
4199;BME280;2113;50.946;14.610;2023-02-15T01:02:18;98479.06;;;4.07;61.41
4199;BME280;2113;50.946;14.610;2023-02-15T01:04:46;98481.03;;;4.28;61.46
4199;BME280;2113;50.946;14.610;2023-02-15T01:07:15;98478.66;;;4.48;60.10
4199;BME280;2113;50.946;14.610;2023-02-15T01:09:43;98477.38;;;4.09;59.98
4199;BME280;2113;50.946;14.610;2023-02-15T01:12:11;98477.66;;;4.34;60.09
4199;BME280;2113;50.946;14.610;2023-02-15T01:14:41;98478.50;;;4.33;60.00
4199;BME280;2113;50.946;14.610;2023-02-15T01:17:09;98477.41;;;4.14;60.90
4199;BME280;2113;50.946;14.610;2023-02-15T01:19:37;98474.13;;;4.26;60.04
4199;BME280;2113;50.946;14.610;2023-02-15T01:22:06;98472.63;;;4.46;60.00
4199;BME280;2113;50.946;14.610;2023-02-15T01:24:34;98471.09;;;3.87;61.78
4199;BME280;2113;50.946;14.610;2023-02-15T01:27:02;98466.66;;;3.76;62.49
4199;BME280;2113;50.946;14.610;2023-02-15T01:29:31;98480.47;;;3.81;62.25
4199;BME280;2113;50.946;14.610;2023-02-15T01:32:01;98465.28;;;4.02;61.29
4199;BME280;2113;50.946;14.610;2023-02-15T01:34:29;98463.69;;;4.14;60.69
4199;BME280;2113;50.946;14.610;2023-02-15T01:36:57;98455.25;;;4.27;59.49
4199;BME280;2113;50.946;14.610;2023-02-15T01:39:25;98456.16;;;4.30;59.45
4199;BME280;2113;50.946;14.610;2023-02-15T01:41:53;98446.66;;;4.28;59.65
4199;BME280;2113;50.946;14.610;2023-02-15T01:44:46;98453.03;;;4.61;58.26
4199;BME280;2113;50.946;14.610;2023-02-15T01:47:22;98447.75;;;4.48;58.04
4199;BME280;2113;50.946;14.610;2023-02-15T01:50:01;98451.69;;;4.16;59.29
4199;BME280;2113;50.946;14.610;2023-02-15T01:52:31;98455.72;;;3.93;60.72
4199;BME280;2113;50.946;14.610;2023-02-15T01:54:59;98453.28;;;4.04;60.66
4199;BME280;2113;50.946;14.610;2023-02-15T01:57:29;98444.56;;;3.91;60.65
4199;BME280;2113;50.946;14.610;2023-02-15T01:59:59;98439.34;;;3.85;60.99
4199;BME280;2113;50.946;14.610;2023-02-15T02:02:40;98448.91;;;3.96;60.80
4199;BME280;2113;50.946;14.610;2023-02-15T02:05:11;98434.16;;;3.84;61.22
4199;BME280;2113;50.946;14.610;2023-02-15T02:07:41;98437.09;;;4.13;61.43
4199;BME280;2113;50.946;14.610;2023-02-15T02:10:12;98433.75;;;4.22;60.53
4199;BME280;2113;50.946;14.610;2023-02-15T02:12:42;98432.91;;;4.26;60.90
4199;BME280;2113;50.946;14.610;2023-02-15T02:15:12;98437.25;;;4.31;60.18
4199;BME280;2113;50.946;14.610;2023-02-15T02:17:52;98434.44;;;4.07;61.56
4199;BME280;2113;50.946;14.610;2023-02-15T02:20:30;98429.84;;;4.61;59.98
4199;BME280;2113;50.946;14.610;2023-02-15T02:23:23;98425.47;;;4.54;59.06
4199;BME280;2113;50.946;14.610;2023-02-15T02:26:14;98428.34;;;4.87;58.49
4199;BME280;2113;50.946;14.610;2023-02-15T02:29:16;98411.19;;;4.93;57.70
4199;BME280;2113;50.946;14.610;2023-02-15T02:32:12;98416.84;;;4.48;58.30
4199;BME280;2113;50.946;14.610;2023-02-15T02:34:52;98409.28;;;4.71;57.50
4199;BME280;2113;50.946;14.610;2023-02-15T02:37:26;98414.44;;;4.70;56.90
4199;BME280;2113;50.946;14.610;2023-02-15T02:40:03;98404.19;;;4.76;56.07
4199;BME280;2113;50.946;14.610;2023-02-15T02:42:38;98400.78;;;4.80;56.36
4199;BME280;2113;50.946;14.610;2023-02-15T02:45:09;98394.91;;;5.00;55.93
4199;BME280;2113;50.946;14.610;2023-02-15T02:47:43;98399.72;;;4.55;57.09
4199;BME280;2113;50.946;14.610;2023-02-15T02:50:17;98401.97;;;4.17;59.25
4199;BME280;2113;50.946;14.610;2023-02-15T02:52:47;98390.25;;;3.68;61.31
4199;BME280;2113;50.946;14.610;2023-02-15T02:55:17;98393.44;;;3.49;61.60
4199;BME280;2113;50.946;14.610;2023-02-15T02:57:53;98395.88;;;4.10;60.28
4199;BME280;2113;50.946;14.610;2023-02-15T03:00:23;98393.94;;;3.89;60.67
4199;BME280;2113;50.946;14.610;2023-02-15T03:02:56;98387.47;;;3.50;61.92
4199;BME280;2113;50.946;14.610;2023-02-15T03:05:34;98385.03;;;3.62;61.80
4199;BME280;2113;50.946;14.610;2023-02-15T03:08:05;98392.16;;;3.83;61.78
4199;BME280;2113;50.946;14.610;2023-02-15T03:10:38;98391.50;;;4.04;61.30
4199;BME280;2113;50.946;14.610;2023-02-15T03:13:08;98382.31;;;4.26;59.36
4199;BME280;2113;50.946;14.610;2023-02-15T03:15:39;98386.50;;;4.15;59.83
4199;BME280;2113;50.946;14.610;2023-02-15T03:18:30;98382.66;;;4.69;58.27
4199;BME280;2113;50.946;14.610;2023-02-15T03:21:04;98375.75;;;4.65;57.77
4199;BME280;2113;50.946;14.610;2023-02-15T03:23:36;98376.66;;;4.69;57.21
4199;BME280;2113;50.946;14.610;2023-02-15T03:26:07;98376.44;;;4.44;57.27
4199;BME280;2113;50.946;14.610;2023-02-15T03:28:42;98379.41;;;3.94;57.99
4199;BME280;2113;50.946;14.610;2023-02-15T03:31:12;98379.31;;;3.85;57.26
4199;BME280;2113;50.946;14.610;2023-02-15T03:33:47;98372.44;;;3.85;57.06
4199;BME280;2113;50.946;14.610;2023-02-15T03:36:21;98370.97;;;4.10;57.57
4199;BME280;2113;50.946;14.610;2023-02-15T03:38:55;98374.47;;;4.16;56.99
4199;BME280;2113;50.946;14.610;2023-02-15T03:41:28;98375.31;;;4.16;57.72
4199;BME280;2113;50.946;14.610;2023-02-15T03:44:04;98369.19;;;4.02;59.23
4199;BME280;2113;50.946;14.610;2023-02-15T03:46:40;98377.22;;;4.34;58.61
4199;BME280;2113;50.946;14.610;2023-02-15T03:49:14;98376.06;;;4.03;59.13
4199;BME280;2113;50.946;14.610;2023-02-15T03:51:48;98372.63;;;4.02;59.27
4199;BME280;2113;50.946;14.610;2023-02-15T03:54:20;98376.28;;;4.26;58.40
4199;BME280;2113;50.946;14.610;2023-02-15T03:57:04;98371.69;;;3.97;58.76
4199;BME280;2113;50.946;14.610;2023-02-15T04:00:12;98370.34;;;3.50;60.49
4199;BME280;2113;50.946;14.610;2023-02-15T04:03:14;98364.47;;;3.62;60.75
4199;BME280;2113;50.946;14.610;2023-02-15T04:05:47;98367.09;;;3.65;60.78
4199;BME280;2113;50.946;14.610;2023-02-15T04:08:16;98369.16;;;4.00;59.70
4199;BME280;2113;50.946;14.610;2023-02-15T04:10:44;98359.06;;;4.20;58.15
4199;BME280;2113;50.946;14.610;2023-02-15T04:13:30;98367.59;;;4.15;57.77
4199;BME280;2113;50.946;14.610;2023-02-15T04:15:58;98362.59;;;4.30;57.91
4199;BME280;2113;50.946;14.610;2023-02-15T04:18:37;98360.91;;;4.35;57.94
4199;BME280;2113;50.946;14.610;2023-02-15T04:21:24;98365.91;;;4.17;57.95
4199;BME280;2113;50.946;14.610;2023-02-15T04:24:11;98363.19;;;4.03;58.01
4199;BME280;2113;50.946;14.610;2023-02-15T04:26:58;98364.97;;;4.08;57.95
4199;BME280;2113;50.946;14.610;2023-02-15T04:29:27;98369.81;;;3.79;57.96
4199;BME280;2113;50.946;14.610;2023-02-15T04:31:57;98362.34;;;3.30;59.21
4199;BME280;2113;50.946;14.610;2023-02-15T04:34:26;98369.75;;;3.06;60.10
4199;BME280;2113;50.946;14.610;2023-02-15T04:36:54;98368.94;;;3.08;60.36
4199;BME280;2113;50.946;14.610;2023-02-15T04:39:24;98363.22;;;3.29;60.39
4199;BME280;2113;50.946;14.610;2023-02-15T04:41:52;98363.53;;;3.57;59.21
4199;BME280;2113;50.946;14.610;2023-02-15T04:44:20;98362.84;;;3.69;58.93
4199;BME280;2113;50.946;14.610;2023-02-15T04:46:48;98363.66;;;3.66;58.63
4199;BME280;2113;50.946;14.610;2023-02-15T04:49:16;98365.72;;;3.98;58.00
4199;BME280;2113;50.946;14.610;2023-02-15T04:51:44;98365.53;;;3.81;58.03
4199;BME280;2113;50.946;14.610;2023-02-15T04:54:12;98361.13;;;3.72;59.09
4199;BME280;2113;50.946;14.610;2023-02-15T04:56:42;98362.13;;;3.81;59.84
4199;BME280;2113;50.946;14.610;2023-02-15T04:59:10;98363.06;;;3.89;58.97
4199;BME280;2113;50.946;14.610;2023-02-15T05:01:39;98366.53;;;3.92;58.92
4199;BME280;2113;50.946;14.610;2023-02-15T05:04:07;98359.72;;;3.24;60.55
4199;BME280;2113;50.946;14.610;2023-02-15T05:06:35;98364.91;;;3.27;60.25
4199;BME280;2113;50.946;14.610;2023-02-15T05:09:03;98361.50;;;3.30;59.61
4199;BME280;2113;50.946;14.610;2023-02-15T05:11:32;98372.91;;;3.50;60.74
4199;BME280;2113;50.946;14.610;2023-02-15T05:14:01;98367.72;;;3.46;60.92
4199;BME280;2113;50.946;14.610;2023-02-15T05:16:29;98364.47;;;3.62;59.95
4199;BME280;2113;50.946;14.610;2023-02-15T05:18:57;98354.28;;;3.70;59.91
4199;BME280;2113;50.946;14.610;2023-02-15T05:21:25;98358.41;;;3.57;59.44
4199;BME280;2113;50.946;14.610;2023-02-15T05:23:54;98348.22;;;3.66;58.64
4199;BME280;2113;50.946;14.610;2023-02-15T05:26:24;98351.47;;;3.50;58.13
4199;BME280;2113;50.946;14.610;2023-02-15T05:29:11;98354.19;;;3.62;58.32
4199;BME280;2113;50.946;14.610;2023-02-15T05:31:39;98351.25;;;3.31;59.33
4199;BME280;2113;50.946;14.610;2023-02-15T05:34:07;98352.44;;;2.92;61.19
4199;BME280;2113;50.946;14.610;2023-02-15T05:36:35;98339.13;;;3.21;60.66
4199;BME280;2113;50.946;14.610;2023-02-15T05:39:03;98338.66;;;2.87;62.50
4199;BME280;2113;50.946;14.610;2023-02-15T05:41:32;98343.78;;;3.53;60.66
4199;BME280;2113;50.946;14.610;2023-02-15T05:44:01;98342.22;;;3.66;59.58
4199;BME280;2113;50.946;14.610;2023-02-15T05:46:30;98339.50;;;3.55;60.01
4199;BME280;2113;50.946;14.610;2023-02-15T05:48:59;98348.09;;;3.54;59.98
4199;BME280;2113;50.946;14.610;2023-02-15T05:51:27;98339.63;;;3.64;60.14
4199;BME280;2113;50.946;14.610;2023-02-15T05:53:55;98348.41;;;3.83;59.15
4199;BME280;2113;50.946;14.610;2023-02-15T05:56:23;98339.41;;;4.28;57.57
4199;BME280;2113;50.946;14.610;2023-02-15T05:58:52;98346.69;;;3.84;57.04
4199;BME280;2113;50.946;14.610;2023-02-15T06:01:21;98344.88;;;3.73;57.10
4199;BME280;2113;50.946;14.610;2023-02-15T06:03:51;98350.56;;;3.46;58.37
4199;BME280;2113;50.946;14.610;2023-02-15T06:06:19;98357.44;;;3.46;58.72
4199;BME280;2113;50.946;14.610;2023-02-15T06:08:48;98350.38;;;3.31;58.88
4199;BME280;2113;50.946;14.610;2023-02-15T06:11:16;98354.56;;;3.21;58.44
4199;BME280;2113;50.946;14.610;2023-02-15T06:13:44;98354.56;;;3.24;58.73
4199;BME280;2113;50.946;14.610;2023-02-15T06:16:12;98359.44;;;3.03;59.97
4199;BME280;2113;50.946;14.610;2023-02-15T06:18:42;98361.53;;;2.70;61.60
4199;BME280;2113;50.946;14.610;2023-02-15T06:21:12;98360.91;;;2.85;61.09
4199;BME280;2113;50.946;14.610;2023-02-15T06:23:40;98362.16;;;3.13;61.33
4199;BME280;2113;50.946;14.610;2023-02-15T06:26:08;98352.03;;;3.26;60.33
4199;BME280;2113;50.946;14.610;2023-02-15T06:28:37;98351.13;;;3.22;60.71
4199;BME280;2113;50.946;14.610;2023-02-15T06:31:05;98359.16;;;3.48;59.71
4199;BME280;2113;50.946;14.610;2023-02-15T06:33:33;98359.38;;;3.00;60.92
4199;BME280;2113;50.946;14.610;2023-02-15T06:36:02;98352.06;;;3.30;60.83
4199;BME280;2113;50.946;14.610;2023-02-15T06:38:32;98351.22;;;3.30;60.91
4199;BME280;2113;50.946;14.610;2023-02-15T06:41:00;98364.41;;;3.56;60.06
4199;BME280;2113;50.946;14.610;2023-02-15T06:43:29;98363.53;;;3.57;59.40
4199;BME280;2113;50.946;14.610;2023-02-15T06:45:58;98363.94;;;3.91;58.52
4199;BME280;2113;50.946;14.610;2023-02-15T06:48:27;98372.09;;;4.37;57.65
4199;BME280;2113;50.946;14.610;2023-02-15T06:50:55;98377.22;;;4.32;56.92
4199;BME280;2113;50.946;14.610;2023-02-15T06:53:23;98368.00;;;4.64;56.56
4199;BME280;2113;50.946;14.610;2023-02-15T06:55:52;98377.22;;;4.32;57.13
4199;BME280;2113;50.946;14.610;2023-02-15T06:58:28;98378.28;;;3.70;58.84
4199;BME280;2113;50.946;14.610;2023-02-15T07:00:56;98370.78;;;3.89;59.61
4199;BME280;2113;50.946;14.610;2023-02-15T07:03:24;98373.38;;;3.92;60.05
4199;BME280;2113;50.946;14.610;2023-02-15T07:05:54;98377.38;;;3.65;60.09
4199;BME280;2113;50.946;14.610;2023-02-15T07:08:24;98370.84;;;3.97;60.70
4199;BME280;2113;50.946;14.610;2023-02-15T07:10:54;98367.06;;;3.64;60.59
4199;BME280;2113;50.946;14.610;2023-02-15T07:13:43;98362.22;;;3.93;60.85
4199;BME280;2113;50.946;14.610;2023-02-15T07:16:10;98359.00;;;4.14;59.74
4199;BME280;2113;50.946;14.610;2023-02-15T07:18:39;98363.97;;;3.97;60.19
4199;BME280;2113;50.946;14.610;2023-02-15T07:21:08;98364.84;;;3.99;59.88
4199;BME280;2113;50.946;14.610;2023-02-15T07:23:36;98356.75;;;4.48;59.07
4199;BME280;2113;50.946;14.610;2023-02-15T07:26:07;98363.38;;;4.23;59.15
4199;BME280;2113;50.946;14.610;2023-02-15T07:28:36;98355.00;;;4.47;58.31
4199;BME280;2113;50.946;14.610;2023-02-15T07:31:05;98360.94;;;4.38;59.70
4199;BME280;2113;50.946;14.610;2023-02-15T07:33:34;98346.44;;;8.56;50.07
4199;BME280;2113;50.946;14.610;2023-02-15T07:36:03;98322.72;;;10.85;43.08
4199;BME280;2113;50.946;14.610;2023-02-15T07:38:34;98322.38;;;12.67;38.35
4199;BME280;2113;50.946;14.610;2023-02-15T07:41:04;98323.38;;;12.26;38.52
4199;BME280;2113;50.946;14.610;2023-02-15T07:43:35;98315.72;;;12.90;37.49
4199;BME280;2113;50.946;14.610;2023-02-15T07:46:06;98312.69;;;13.98;35.15
4199;BME280;2113;50.946;14.610;2023-02-15T07:48:35;98306.66;;;15.04;33.42
4199;BME280;2113;50.946;14.610;2023-02-15T07:51:06;98307.13;;;13.18;34.82
4199;BME280;2113;50.946;14.610;2023-02-15T07:53:35;98315.38;;;12.32;36.92
4199;BME280;2113;50.946;14.610;2023-02-15T07:56:05;98317.56;;;12.85;36.62
4199;BME280;2113;50.946;14.610;2023-02-15T07:58:35;98313.00;;;14.15;34.49
4199;BME280;2113;50.946;14.610;2023-02-15T08:01:20;98313.53;;;13.39;35.36
4199;BME280;2113;50.946;14.610;2023-02-15T08:03:50;98310.50;;;12.18;37.59
4199;BME280;2113;50.946;14.610;2023-02-15T08:06:19;98318.25;;;11.39;38.59
4199;BME280;2113;50.946;14.610;2023-02-15T08:08:47;98310.22;;;11.51;39.12
4199;BME280;2113;50.946;14.610;2023-02-15T08:11:18;98311.31;;;10.94;39.86
4199;BME280;2113;50.946;14.610;2023-02-15T08:14:04;98311.00;;;11.54;39.68
4199;BME280;2113;50.946;14.610;2023-02-15T08:16:35;98312.63;;;13.41;36.45
4199;BME280;2113;50.946;14.610;2023-02-15T08:19:06;98310.44;;;13.24;35.88
4199;BME280;2113;50.946;14.610;2023-02-15T08:21:37;98302.50;;;13.88;34.97
4199;BME280;2113;50.946;14.610;2023-02-15T08:24:07;98294.31;;;13.08;36.32
4199;BME280;2113;50.946;14.610;2023-02-15T08:26:36;98281.16;;;14.57;33.83
4199;BME280;2113;50.946;14.610;2023-02-15T08:29:09;98275.69;;;15.39;33.16
4199;BME280;2113;50.946;14.610;2023-02-15T08:31:38;98273.13;;;15.84;31.64
4199;BME280;2113;50.946;14.610;2023-02-15T08:34:08;98273.19;;;14.34;33.21
4199;BME280;2113;50.946;14.610;2023-02-15T08:36:37;98280.66;;;13.91;34.99
4199;BME280;2113;50.946;14.610;2023-02-15T08:39:06;98277.84;;;14.52;33.51
4199;BME280;2113;50.946;14.610;2023-02-15T08:41:35;98278.81;;;14.48;34.19
4199;BME280;2113;50.946;14.610;2023-02-15T08:44:06;98271.69;;;14.80;33.22
4199;BME280;2113;50.946;14.610;2023-02-15T08:46:38;98285.41;;;14.06;33.35
4199;BME280;2113;50.946;14.610;2023-02-15T08:49:07;98277.66;;;15.08;32.75
4199;BME280;2113;50.946;14.610;2023-02-15T08:51:36;98274.59;;;14.44;33.72
4199;BME280;2113;50.946;14.610;2023-02-15T08:54:06;98272.22;;;14.90;32.71
4199;BME280;2113;50.946;14.610;2023-02-15T08:56:37;98268.34;;;15.25;32.02
4199;BME280;2113;50.946;14.610;2023-02-15T08:59:06;98263.69;;;16.45;30.60
4199;BME280;2113;50.946;14.610;2023-02-15T09:01:36;98269.81;;;15.32;32.14
4199;BME280;2113;50.946;14.610;2023-02-15T09:04:06;98261.03;;;15.57;32.29
4199;BME280;2113;50.946;14.610;2023-02-15T09:06:36;98262.69;;;16.70;30.56
4199;BME280;2113;50.946;14.610;2023-02-15T09:09:05;98266.19;;;13.51;34.12
4199;BME280;2113;50.946;14.610;2023-02-15T09:11:34;98268.72;;;13.52;35.58
4199;BME280;2113;50.946;14.610;2023-02-15T09:14:04;98256.91;;;12.77;36.24
4199;BME280;2113;50.946;14.610;2023-02-15T09:16:34;98261.84;;;13.80;34.46
4199;BME280;2113;50.946;14.610;2023-02-15T09:19:05;98262.19;;;14.24;34.21
4199;BME280;2113;50.946;14.610;2023-02-15T09:21:36;98267.72;;;14.93;33.78
4199;BME280;2113;50.946;14.610;2023-02-15T09:24:07;98262.88;;;15.31;32.40
4199;BME280;2113;50.946;14.610;2023-02-15T09:26:38;98259.09;;;15.62;32.48
4199;BME280;2113;50.946;14.610;2023-02-15T09:29:09;98264.88;;;14.47;32.84
4199;BME280;2113;50.946;14.610;2023-02-15T09:31:39;98261.06;;;13.15;35.35
4199;BME280;2113;50.946;14.610;2023-02-15T09:34:13;98258.38;;;14.06;34.98
4199;BME280;2113;50.946;14.610;2023-02-15T09:36:43;98257.38;;;14.37;33.73
4199;BME280;2113;50.946;14.610;2023-02-15T09:39:13;98264.00;;;14.22;34.86
4199;BME280;2113;50.946;14.610;2023-02-15T09:45:13;98243.53;;;16.88;31.03
4199;BME280;2113;50.946;14.610;2023-02-15T09:48:04;98254.25;;;16.41;30.57
4199;BME280;2113;50.946;14.610;2023-02-15T09:50:40;98258.00;;;14.97;32.71
4199;BME280;2113;50.946;14.610;2023-02-15T09:53:26;98265.16;;;14.92;32.91
4199;BME280;2113;50.946;14.610;2023-02-15T09:56:01;98256.44;;;15.40;32.58
4199;BME280;2113;50.946;14.610;2023-02-15T09:58:40;98253.78;;;14.41;32.51
4199;BME280;2113;50.946;14.610;2023-02-15T10:01:16;98254.59;;;14.43;34.19
4199;BME280;2113;50.946;14.610;2023-02-15T10:04:01;98247.91;;;14.61;32.63
4199;BME280;2113;50.946;14.610;2023-02-15T10:06:38;98247.34;;;14.24;33.27
4199;BME280;2113;50.946;14.610;2023-02-15T10:12:14;98239.75;;;15.42;32.09
4199;BME280;2113;50.946;14.610;2023-02-15T10:15:13;98245.63;;;13.07;35.85
4199;BME280;2113;50.946;14.610;2023-02-15T10:17:55;98255.34;;;12.35;37.10
4199;BME280;2113;50.946;14.610;2023-02-15T10:20:33;98240.59;;;14.17;35.92
4199;BME280;2113;50.946;14.610;2023-02-15T10:23:20;98244.13;;;13.60;34.59
4199;BME280;2113;50.946;14.610;2023-02-15T10:26:00;98238.69;;;13.06;36.03
4199;BME280;2113;50.946;14.610;2023-02-15T10:28:39;98237.59;;;13.75;36.31
4199;BME280;2113;50.946;14.610;2023-02-15T10:31:14;98229.69;;;13.76;34.54
4199;BME280;2113;50.946;14.610;2023-02-15T10:33:52;98229.31;;;14.42;35.02
4199;BME280;2113;50.946;14.610;2023-02-15T10:36:35;98231.56;;;14.27;34.87
4199;BME280;2113;50.946;14.610;2023-02-15T10:39:14;98236.00;;;13.69;35.27
4199;BME280;2113;50.946;14.610;2023-02-15T10:41:55;98227.38;;;15.22;33.91
4199;BME280;2113;50.946;14.610;2023-02-15T10:44:40;98236.44;;;12.61;37.78
4199;BME280;2113;50.946;14.610;2023-02-15T10:47:23;98223.28;;;12.64;37.22
4199;BME280;2113;50.946;14.610;2023-02-15T10:50:10;98236.00;;;10.86;38.60
4199;BME280;2113;50.946;14.610;2023-02-15T10:52:51;98226.16;;;11.02;38.40
4199;BME280;2113;50.946;14.610;2023-02-15T10:55:37;98213.97;;;12.56;38.65
4199;BME280;2113;50.946;14.610;2023-02-15T10:58:17;98229.06;;;11.29;39.61
4199;BME280;2113;50.946;14.610;2023-02-15T11:00:53;98219.25;;;10.54;40.67
4199;BME280;2113;50.946;14.610;2023-02-15T11:03:36;98214.34;;;11.28;39.87
4199;BME280;2113;50.946;14.610;2023-02-15T11:06:11;98202.97;;;12.10;38.38
4199;BME280;2113;50.946;14.610;2023-02-15T11:08:44;98197.38;;;12.25;38.70
4199;BME280;2113;50.946;14.610;2023-02-15T11:11:19;98210.22;;;11.17;39.75
4199;BME280;2113;50.946;14.610;2023-02-15T11:13:52;98197.97;;;12.01;38.55
4199;BME280;2113;50.946;14.610;2023-02-15T11:16:25;98195.84;;;12.49;38.42
4199;BME280;2113;50.946;14.610;2023-02-15T11:18:57;98191.47;;;12.51;37.60
4199;BME280;2113;50.946;14.610;2023-02-15T11:21:27;98195.34;;;12.69;37.28
4199;BME280;2113;50.946;14.610;2023-02-15T11:23:59;98193.66;;;12.67;37.63
4199;BME280;2113;50.946;14.610;2023-02-15T11:26:33;98194.31;;;12.75;35.87
4199;BME280;2113;50.946;14.610;2023-02-15T11:29:07;98187.56;;;12.66;38.73
4199;BME280;2113;50.946;14.610;2023-02-15T11:31:42;98198.31;;;11.85;40.08
4199;BME280;2113;50.946;14.610;2023-02-15T11:34:17;98191.16;;;12.62;37.03
4199;BME280;2113;50.946;14.610;2023-02-15T11:36:49;98181.91;;;11.80;38.94
4199;BME280;2113;50.946;14.610;2023-02-15T11:39:19;98186.34;;;12.14;39.17
4199;BME280;2113;50.946;14.610;2023-02-15T11:41:53;98187.09;;;11.04;40.50
4199;BME280;2113;50.946;14.610;2023-02-15T11:44:25;98182.69;;;11.07;40.51
4199;BME280;2113;50.946;14.610;2023-02-15T11:46:56;98181.25;;;11.72;39.93
4199;BME280;2113;50.946;14.610;2023-02-15T11:49:32;98182.09;;;11.72;40.25
4199;BME280;2113;50.946;14.610;2023-02-15T11:52:03;98183.81;;;11.73;41.26
4199;BME280;2113;50.946;14.610;2023-02-15T11:54:36;98188.09;;;12.48;38.53
4199;BME280;2113;50.946;14.610;2023-02-15T11:57:12;98188.84;;;10.58;40.73
4199;BME280;2113;50.946;14.610;2023-02-15T11:59:46;98178.53;;;11.39;40.25
4199;BME280;2113;50.946;14.610;2023-02-15T12:02:20;98182.50;;;11.16;41.53
4199;BME280;2113;50.946;14.610;2023-02-15T12:04:52;98175.28;;;11.67;40.10
4199;BME280;2113;50.946;14.610;2023-02-15T12:07:25;98167.75;;;12.26;39.79
4199;BME280;2113;50.946;14.610;2023-02-15T12:10:00;98176.38;;;11.95;39.06
4199;BME280;2113;50.946;14.610;2023-02-15T12:12:35;98166.41;;;11.36;40.61
4199;BME280;2113;50.946;14.610;2023-02-15T12:15:05;98161.88;;;11.82;39.35
4199;BME280;2113;50.946;14.610;2023-02-15T12:17:37;98163.81;;;11.36;40.59
4199;BME280;2113;50.946;14.610;2023-02-15T12:20:21;98164.75;;;10.50;42.04
4199;BME280;2113;50.946;14.610;2023-02-15T12:22:54;98171.59;;;10.97;40.99
4199;BME280;2113;50.946;14.610;2023-02-15T12:25:33;98158.78;;;10.43;42.09
4199;BME280;2113;50.946;14.610;2023-02-15T12:28:19;98160.06;;;10.21;43.32
4199;BME280;2113;50.946;14.610;2023-02-15T12:30:50;98148.38;;;9.93;43.46
4199;BME280;2113;50.946;14.610;2023-02-15T12:33:26;98149.13;;;10.00;43.33
4199;BME280;2113;50.946;14.610;2023-02-15T12:35:57;98157.47;;;10.67;43.00
4199;BME280;2113;50.946;14.610;2023-02-15T12:38:28;98154.38;;;11.31;40.17
4199;BME280;2113;50.946;14.610;2023-02-15T12:40:59;98154.41;;;10.90;40.45
4199;BME280;2113;50.946;14.610;2023-02-15T12:43:32;98148.34;;;11.68;40.46
4199;BME280;2113;50.946;14.610;2023-02-15T12:46:21;98137.06;;;11.67;39.40
4199;BME280;2113;50.946;14.610;2023-02-15T12:49:11;98145.38;;;13.13;37.25
4199;BME280;2113;50.946;14.610;2023-02-15T12:51:48;98132.56;;;13.34;36.10
4199;BME280;2113;50.946;14.610;2023-02-15T12:54:30;98135.38;;;12.02;37.48
4199;BME280;2113;50.946;14.610;2023-02-15T12:57:02;98131.44;;;12.20;38.52
4199;BME280;2113;50.946;14.610;2023-02-15T12:59:49;98116.78;;;13.38;37.89
4199;BME280;2113;50.946;14.610;2023-02-15T13:02:22;98121.53;;;12.96;36.48
4199;BME280;2113;50.946;14.610;2023-02-15T13:04:51;98123.25;;;12.65;36.71
4199;BME280;2113;50.946;14.610;2023-02-15T13:07:21;98118.38;;;12.53;37.60
4199;BME280;2113;50.946;14.610;2023-02-15T13:09:50;98116.09;;;13.31;36.61
4199;BME280;2113;50.946;14.610;2023-02-15T13:12:21;98109.50;;;13.48;36.59
4199;BME280;2113;50.946;14.610;2023-02-15T13:14:55;98103.63;;;13.68;34.97
4199;BME280;2113;50.946;14.610;2023-02-15T13:17:26;98100.03;;;13.45;37.07
4199;BME280;2113;50.946;14.610;2023-02-15T13:19:59;98096.09;;;12.72;39.20
4199;BME280;2113;50.946;14.610;2023-02-15T13:22:35;98095.41;;;11.30;40.47
4199;BME280;2113;50.946;14.610;2023-02-15T13:25:11;98094.00;;;11.16;40.36
4199;BME280;2113;50.946;14.610;2023-02-15T13:27:43;98089.88;;;11.44;40.67
4199;BME280;2113;50.946;14.610;2023-02-15T13:30:24;98083.72;;;11.10;40.21
4199;BME280;2113;50.946;14.610;2023-02-15T13:32:56;98084.81;;;10.58;42.12
4199;BME280;2113;50.946;14.610;2023-02-15T13:35:28;98086.56;;;10.59;41.81
4199;BME280;2113;50.946;14.610;2023-02-15T13:38:11;98072.50;;;11.44;41.14
4199;BME280;2113;50.946;14.610;2023-02-15T13:40:48;98079.47;;;11.44;39.18
4199;BME280;2113;50.946;14.610;2023-02-15T13:43:28;98082.09;;;10.64;40.99
4199;BME280;2113;50.946;14.610;2023-02-15T13:46:18;98078.28;;;10.38;41.46
4199;BME280;2113;50.946;14.610;2023-02-15T13:48:59;98082.34;;;10.94;40.17
4199;BME280;2113;50.946;14.610;2023-02-15T13:51:35;98085.59;;;10.63;42.68
4199;BME280;2113;50.946;14.610;2023-02-15T13:57:14;98087.81;;;10.82;39.74